sensor_id;sensor_type;location;lat;lon;timestamp;temperature;humidity
2899;DHT22;1459;50.864;6.438;2022-12-18T00:01:01;-5.90;99.90
2899;DHT22;1459;50.864;6.438;2022-12-18T00:03:32;-6.00;99.90
2899;DHT22;1459;50.864;6.438;2022-12-18T00:05:59;-6.00;99.90
2899;DHT22;1459;50.864;6.438;2022-12-18T00:08:27;-6.00;99.90
2899;DHT22;1459;50.864;6.438;2022-12-18T00:10:54;-6.00;99.90
2899;DHT22;1459;50.864;6.438;2022-12-18T00:13:22;-6.00;99.90
2899;DHT22;1459;50.864;6.438;2022-12-18T00:15:49;-5.90;99.90
2899;DHT22;1459;50.864;6.438;2022-12-18T00:18:16;-5.90;99.90
2899;DHT22;1459;50.864;6.438;2022-12-18T00:20:45;-6.00;99.90
2899;DHT22;1459;50.864;6.438;2022-12-18T00:23:12;-6.00;99.90
2899;DHT22;1459;50.864;6.438;2022-12-18T00:25:39;-6.10;99.90
2899;DHT22;1459;50.864;6.438;2022-12-18T00:28:06;-6.10;99.90
2899;DHT22;1459;50.864;6.438;2022-12-18T00:30:32;-6.10;99.90
2899;DHT22;1459;50.864;6.438;2022-12-18T00:32:59;-6.20;99.90
2899;DHT22;1459;50.864;6.438;2022-12-18T00:35:26;-6.20;99.90
2899;DHT22;1459;50.864;6.438;2022-12-18T00:37:55;-6.20;99.90
2899;DHT22;1459;50.864;6.438;2022-12-18T00:40:22;-6.30;99.90
2899;DHT22;1459;50.864;6.438;2022-12-18T00:42:49;-6.30;99.90
2899;DHT22;1459;50.864;6.438;2022-12-18T00:45:21;-6.30;99.90
2899;DHT22;1459;50.864;6.438;2022-12-18T00:47:48;-6.30;99.90
2899;DHT22;1459;50.864;6.438;2022-12-18T00:50:15;-6.30;99.90
2899;DHT22;1459;50.864;6.438;2022-12-18T00:52:42;-6.20;99.90
2899;DHT22;1459;50.864;6.438;2022-12-18T00:55:14;-6.20;99.90
2899;DHT22;1459;50.864;6.438;2022-12-18T00:57:41;-6.30;99.90
2899;DHT22;1459;50.864;6.438;2022-12-18T01:00:10;-6.30;99.90
2899;DHT22;1459;50.864;6.438;2022-12-18T01:02:37;-6.30;99.90
2899;DHT22;1459;50.864;6.438;2022-12-18T01:05:05;-6.30;99.90
2899;DHT22;1459;50.864;6.438;2022-12-18T01:07:32;-6.30;99.90
2899;DHT22;1459;50.864;6.438;2022-12-18T01:10:01;-6.30;99.90
2899;DHT22;1459;50.864;6.438;2022-12-18T01:12:29;-6.30;99.90
2899;DHT22;1459;50.864;6.438;2022-12-18T01:14:56;-6.40;99.90
2899;DHT22;1459;50.864;6.438;2022-12-18T01:17:23;-6.40;99.90
2899;DHT22;1459;50.864;6.438;2022-12-18T01:19:50;-6.40;99.90
2899;DHT22;1459;50.864;6.438;2022-12-18T01:22:18;-6.40;99.90
2899;DHT22;1459;50.864;6.438;2022-12-18T01:24:44;-6.40;99.90
2899;DHT22;1459;50.864;6.438;2022-12-18T01:27:11;-6.40;99.90
2899;DHT22;1459;50.864;6.438;2022-12-18T01:29:40;-6.30;99.90
2899;DHT22;1459;50.864;6.438;2022-12-18T01:32:07;-6.30;99.90
2899;DHT22;1459;50.864;6.438;2022-12-18T01:34:35;-6.30;99.90
2899;DHT22;1459;50.864;6.438;2022-12-18T01:37:03;-6.30;99.90
2899;DHT22;1459;50.864;6.438;2022-12-18T01:39:30;-6.20;99.90
2899;DHT22;1459;50.864;6.438;2022-12-18T01:41:58;-6.20;99.90
2899;DHT22;1459;50.864;6.438;2022-12-18T01:44:58;-6.10;99.90
2899;DHT22;1459;50.864;6.438;2022-12-18T01:47:29;-6.20;99.90
2899;DHT22;1459;50.864;6.438;2022-12-18T01:49:58;-6.10;99.90
2899;DHT22;1459;50.864;6.438;2022-12-18T01:52:28;-6.10;99.90
2899;DHT22;1459;50.864;6.438;2022-12-18T01:54:57;-6.10;99.90
2899;DHT22;1459;50.864;6.438;2022-12-18T01:57:26;-6.00;99.90
2899;DHT22;1459;50.864;6.438;2022-12-18T01:59:59;-6.00;99.90
2899;DHT22;1459;50.864;6.438;2022-12-18T02:02:27;-5.80;99.90
2899;DHT22;1459;50.864;6.438;2022-12-18T02:04:55;-5.70;99.90
2899;DHT22;1459;50.864;6.438;2022-12-18T02:07:29;-5.70;99.90
2899;DHT22;1459;50.864;6.438;2022-12-18T02:10:02;-5.70;99.90
2899;DHT22;1459;50.864;6.438;2022-12-18T02:12:36;-5.70;99.90
2899;DHT22;1459;50.864;6.438;2022-12-18T02:15:11;-5.70;99.90
2899;DHT22;1459;50.864;6.438;2022-12-18T02:17:43;-5.70;99.90
2899;DHT22;1459;50.864;6.438;2022-12-18T02:20:16;-5.70;99.90
2899;DHT22;1459;50.864;6.438;2022-12-18T02:22:55;-5.70;99.90
2899;DHT22;1459;50.864;6.438;2022-12-18T02:28:19;-5.70;99.90
2899;DHT22;1459;50.864;6.438;2022-12-18T02:30:48;-5.70;99.90
2899;DHT22;1459;50.864;6.438;2022-12-18T02:33:17;-5.70;99.90
2899;DHT22;1459;50.864;6.438;2022-12-18T02:35:47;-5.70;99.90
2899;DHT22;1459;50.864;6.438;2022-12-18T02:38:15;-5.70;99.90
2899;DHT22;1459;50.864;6.438;2022-12-18T02:40:44;-5.70;99.90
2899;DHT22;1459;50.864;6.438;2022-12-18T02:43:14;-5.70;99.90
2899;DHT22;1459;50.864;6.438;2022-12-18T02:45:49;-5.70;99.90
2899;DHT22;1459;50.864;6.438;2022-12-18T02:48:18;-5.70;99.90
2899;DHT22;1459;50.864;6.438;2022-12-18T02:50:53;-5.70;99.90
2899;DHT22;1459;50.864;6.438;2022-12-18T02:53:27;-5.70;99.90
2899;DHT22;1459;50.864;6.438;2022-12-18T02:56:02;-5.70;99.90
2899;DHT22;1459;50.864;6.438;2022-12-18T02:58:36;-5.70;99.90
2899;DHT22;1459;50.864;6.438;2022-12-18T03:01:11;-5.60;99.90
2899;DHT22;1459;50.864;6.438;2022-12-18T03:03:46;-5.60;99.90
2899;DHT22;1459;50.864;6.438;2022-12-18T03:06:18;-5.70;99.90
2899;DHT22;1459;50.864;6.438;2022-12-18T03:08:49;-5.70;99.90
2899;DHT22;1459;50.864;6.438;2022-12-18T03:11:17;-5.60;99.90
2899;DHT22;1459;50.864;6.438;2022-12-18T03:14:06;-5.60;99.90
2899;DHT22;1459;50.864;6.438;2022-12-18T03:16:36;-5.60;99.90
2899;DHT22;1459;50.864;6.438;2022-12-18T03:19:06;-5.60;99.90
2899;DHT22;1459;50.864;6.438;2022-12-18T03:21:41;-5.50;99.90
2899;DHT22;1459;50.864;6.438;2022-12-18T03:24:10;-5.50;99.90
2899;DHT22;1459;50.864;6.438;2022-12-18T03:26:42;-5.50;99.90
2899;DHT22;1459;50.864;6.438;2022-12-18T03:29:16;-5.60;99.90
2899;DHT22;1459;50.864;6.438;2022-12-18T03:31:48;-5.60;99.90
2899;DHT22;1459;50.864;6.438;2022-12-18T03:34:19;-5.60;99.90
2899;DHT22;1459;50.864;6.438;2022-12-18T03:36:49;-5.60;99.90
2899;DHT22;1459;50.864;6.438;2022-12-18T03:39:17;-5.60;99.90
2899;DHT22;1459;50.864;6.438;2022-12-18T03:41:47;-5.60;99.90
2899;DHT22;1459;50.864;6.438;2022-12-18T03:44:23;-5.60;99.90
2899;DHT22;1459;50.864;6.438;2022-12-18T03:46:59;-5.60;99.90
2899;DHT22;1459;50.864;6.438;2022-12-18T03:49:35;-5.60;99.90
2899;DHT22;1459;50.864;6.438;2022-12-18T03:52:06;-5.60;99.90
2899;DHT22;1459;50.864;6.438;2022-12-18T03:54:35;-5.60;99.90
2899;DHT22;1459;50.864;6.438;2022-12-18T03:57:09;-5.60;99.90
2899;DHT22;1459;50.864;6.438;2022-12-18T03:59:38;-5.60;99.90
2899;DHT22;1459;50.864;6.438;2022-12-18T04:02:08;-5.60;99.90
2899;DHT22;1459;50.864;6.438;2022-12-18T04:04:36;-5.60;99.90
2899;DHT22;1459;50.864;6.438;2022-12-18T04:07:04;-5.60;99.90
2899;DHT22;1459;50.864;6.438;2022-12-18T04:09:33;-5.60;99.90
2899;DHT22;1459;50.864;6.438;2022-12-18T04:12:00;-5.60;99.90
2899;DHT22;1459;50.864;6.438;2022-12-18T04:14:27;-5.70;99.90
2899;DHT22;1459;50.864;6.438;2022-12-18T04:16:54;-5.70;99.90
2899;DHT22;1459;50.864;6.438;2022-12-18T04:19:22;-5.70;99.90
2899;DHT22;1459;50.864;6.438;2022-12-18T04:21:49;-5.70;99.90
2899;DHT22;1459;50.864;6.438;2022-12-18T04:24:16;-5.70;99.90
2899;DHT22;1459;50.864;6.438;2022-12-18T04:26:43;-5.70;99.90
2899;DHT22;1459;50.864;6.438;2022-12-18T04:29:10;-5.70;99.90
2899;DHT22;1459;50.864;6.438;2022-12-18T04:31:37;-5.80;99.90
2899;DHT22;1459;50.864;6.438;2022-12-18T04:34:04;-5.80;99.90
2899;DHT22;1459;50.864;6.438;2022-12-18T04:36:33;-5.70;99.90
2899;DHT22;1459;50.864;6.438;2022-12-18T04:39:00;-5.80;99.90
2899;DHT22;1459;50.864;6.438;2022-12-18T04:41:27;-5.80;99.90
2899;DHT22;1459;50.864;6.438;2022-12-18T04:43:54;-5.80;99.90
2899;DHT22;1459;50.864;6.438;2022-12-18T04:46:21;-5.80;99.90
2899;DHT22;1459;50.864;6.438;2022-12-18T04:48:48;-5.80;99.90
2899;DHT22;1459;50.864;6.438;2022-12-18T04:51:15;-5.80;99.90
2899;DHT22;1459;50.864;6.438;2022-12-18T04:53:43;-5.80;99.90
2899;DHT22;1459;50.864;6.438;2022-12-18T04:56:12;-5.80;99.90
2899;DHT22;1459;50.864;6.438;2022-12-18T04:58:41;-5.80;99.90
2899;DHT22;1459;50.864;6.438;2022-12-18T05:01:08;-5.80;99.90
2899;DHT22;1459;50.864;6.438;2022-12-18T05:03:36;-5.80;99.90
2899;DHT22;1459;50.864;6.438;2022-12-18T05:06:04;-5.80;99.90
2899;DHT22;1459;50.864;6.438;2022-12-18T05:08:31;-5.80;99.90
2899;DHT22;1459;50.864;6.438;2022-12-18T05:11:00;-5.80;99.90
2899;DHT22;1459;50.864;6.438;2022-12-18T05:13:28;-5.80;99.90
2899;DHT22;1459;50.864;6.438;2022-12-18T05:15:55;-5.80;99.90
2899;DHT22;1459;50.864;6.438;2022-12-18T05:18:23;-5.80;99.90
2899;DHT22;1459;50.864;6.438;2022-12-18T05:20:50;-5.80;99.90
2899;DHT22;1459;50.864;6.438;2022-12-18T05:23:18;-5.70;99.90
2899;DHT22;1459;50.864;6.438;2022-12-18T05:25:49;-5.70;99.90
2899;DHT22;1459;50.864;6.438;2022-12-18T05:28:18;-5.70;99.90
2899;DHT22;1459;50.864;6.438;2022-12-18T05:30:48;-5.70;99.90
2899;DHT22;1459;50.864;6.438;2022-12-18T05:33:15;-5.60;99.90
2899;DHT22;1459;50.864;6.438;2022-12-18T05:35:43;-5.60;99.90
2899;DHT22;1459;50.864;6.438;2022-12-18T05:38:10;-5.60;99.90
2899;DHT22;1459;50.864;6.438;2022-12-18T05:40:41;-5.50;99.90
2899;DHT22;1459;50.864;6.438;2022-12-18T05:43:09;-5.50;99.90
2899;DHT22;1459;50.864;6.438;2022-12-18T05:45:39;-5.50;99.90
2899;DHT22;1459;50.864;6.438;2022-12-18T05:48:07;-5.50;99.90
2899;DHT22;1459;50.864;6.438;2022-12-18T05:50:34;-5.50;99.90
2899;DHT22;1459;50.864;6.438;2022-12-18T05:53:02;-5.50;99.90
2899;DHT22;1459;50.864;6.438;2022-12-18T05:55:43;-5.50;99.90
2899;DHT22;1459;50.864;6.438;2022-12-18T05:58:12;-5.50;99.90
2899;DHT22;1459;50.864;6.438;2022-12-18T06:00:42;-5.50;99.90
2899;DHT22;1459;50.864;6.438;2022-12-18T06:03:11;-5.50;99.90
2899;DHT22;1459;50.864;6.438;2022-12-18T06:05:40;-5.50;99.90
2899;DHT22;1459;50.864;6.438;2022-12-18T06:08:07;-5.50;99.90
2899;DHT22;1459;50.864;6.438;2022-12-18T06:10:34;-5.40;99.90
2899;DHT22;1459;50.864;6.438;2022-12-18T06:13:01;-5.50;99.90
2899;DHT22;1459;50.864;6.438;2022-12-18T06:15:29;-5.50;99.90
2899;DHT22;1459;50.864;6.438;2022-12-18T06:17:57;-5.50;99.90
2899;DHT22;1459;50.864;6.438;2022-12-18T06:20:24;-5.50;99.90
2899;DHT22;1459;50.864;6.438;2022-12-18T06:22:51;-5.50;99.90
2899;DHT22;1459;50.864;6.438;2022-12-18T06:25:18;-5.50;99.90
2899;DHT22;1459;50.864;6.438;2022-12-18T06:27:47;-5.50;99.90
2899;DHT22;1459;50.864;6.438;2022-12-18T06:30:15;-5.50;99.90
2899;DHT22;1459;50.864;6.438;2022-12-18T06:32:42;-5.50;99.90
2899;DHT22;1459;50.864;6.438;2022-12-18T06:35:10;-5.50;99.90
2899;DHT22;1459;50.864;6.438;2022-12-18T06:37:37;-5.50;99.90
2899;DHT22;1459;50.864;6.438;2022-12-18T06:40:05;-5.50;99.90
2899;DHT22;1459;50.864;6.438;2022-12-18T06:42:32;-5.50;99.90
2899;DHT22;1459;50.864;6.438;2022-12-18T06:44:59;-5.50;99.90
2899;DHT22;1459;50.864;6.438;2022-12-18T06:47:26;-5.50;99.90
2899;DHT22;1459;50.864;6.438;2022-12-18T06:49:53;-5.50;99.90
2899;DHT22;1459;50.864;6.438;2022-12-18T06:52:22;-5.60;99.90
2899;DHT22;1459;50.864;6.438;2022-12-18T06:54:49;-5.50;99.90
2899;DHT22;1459;50.864;6.438;2022-12-18T06:57:16;-5.50;99.90
2899;DHT22;1459;50.864;6.438;2022-12-18T06:59:43;-5.60;99.90
2899;DHT22;1459;50.864;6.438;2022-12-18T07:02:11;-5.60;99.90
2899;DHT22;1459;50.864;6.438;2022-12-18T07:04:39;-5.50;99.90
2899;DHT22;1459;50.864;6.438;2022-12-18T07:07:08;-5.60;99.90
2899;DHT22;1459;50.864;6.438;2022-12-18T07:09:36;-5.50;99.90
2899;DHT22;1459;50.864;6.438;2022-12-18T07:12:03;-5.50;99.90
2899;DHT22;1459;50.864;6.438;2022-12-18T07:14:32;-5.50;99.90
2899;DHT22;1459;50.864;6.438;2022-12-18T07:16:59;-5.50;99.90
2899;DHT22;1459;50.864;6.438;2022-12-18T07:19:26;-5.60;99.90
2899;DHT22;1459;50.864;6.438;2022-12-18T07:21:53;-5.50;99.90
2899;DHT22;1459;50.864;6.438;2022-12-18T07:24:20;-5.50;99.90
2899;DHT22;1459;50.864;6.438;2022-12-18T07:26:48;-5.50;99.90
2899;DHT22;1459;50.864;6.438;2022-12-18T07:29:15;-5.50;99.90
2899;DHT22;1459;50.864;6.438;2022-12-18T07:31:45;-5.50;99.90
2899;DHT22;1459;50.864;6.438;2022-12-18T07:34:13;-5.50;99.90
2899;DHT22;1459;50.864;6.438;2022-12-18T07:36:41;-5.50;99.90
2899;DHT22;1459;50.864;6.438;2022-12-18T07:39:08;-5.40;99.90
2899;DHT22;1459;50.864;6.438;2022-12-18T07:41:35;-5.40;99.90
2899;DHT22;1459;50.864;6.438;2022-12-18T07:44:04;-5.40;99.90
2899;DHT22;1459;50.864;6.438;2022-12-18T07:46:30;-5.40;99.90
2899;DHT22;1459;50.864;6.438;2022-12-18T07:48:59;-5.30;99.90
2899;DHT22;1459;50.864;6.438;2022-12-18T07:51:26;-5.30;99.90
2899;DHT22;1459;50.864;6.438;2022-12-18T07:53:53;-5.30;99.90
2899;DHT22;1459;50.864;6.438;2022-12-18T07:56:20;-5.30;99.90
2899;DHT22;1459;50.864;6.438;2022-12-18T07:58:47;-5.30;99.90
2899;DHT22;1459;50.864;6.438;2022-12-18T08:01:15;-5.30;99.90
2899;DHT22;1459;50.864;6.438;2022-12-18T08:03:42;-5.20;99.90
2899;DHT22;1459;50.864;6.438;2022-12-18T08:06:10;-5.20;99.90
2899;DHT22;1459;50.864;6.438;2022-12-18T08:08:37;-5.10;99.90
2899;DHT22;1459;50.864;6.438;2022-12-18T08:11:05;-5.10;99.90
2899;DHT22;1459;50.864;6.438;2022-12-18T08:13:32;-5.00;99.90
2899;DHT22;1459;50.864;6.438;2022-12-18T08:16:01;-5.00;99.90
2899;DHT22;1459;50.864;6.438;2022-12-18T08:18:31;-4.90;99.90
2899;DHT22;1459;50.864;6.438;2022-12-18T08:21:07;-4.90;99.90
2899;DHT22;1459;50.864;6.438;2022-12-18T08:23:34;-4.80;99.90
2899;DHT22;1459;50.864;6.438;2022-12-18T08:26:03;-4.80;99.90
2899;DHT22;1459;50.864;6.438;2022-12-18T08:28:31;-4.70;99.90
2899;DHT22;1459;50.864;6.438;2022-12-18T08:30:57;-4.70;99.90
2899;DHT22;1459;50.864;6.438;2022-12-18T08:33:25;-4.70;99.90
2899;DHT22;1459;50.864;6.438;2022-12-18T08:35:54;-4.60;99.90
2899;DHT22;1459;50.864;6.438;2022-12-18T08:38:21;-4.60;99.90
2899;DHT22;1459;50.864;6.438;2022-12-18T08:40:48;-4.60;99.90
2899;DHT22;1459;50.864;6.438;2022-12-18T08:43:15;-4.50;99.90
2899;DHT22;1459;50.864;6.438;2022-12-18T08:45:56;-4.50;99.90
2899;DHT22;1459;50.864;6.438;2022-12-18T08:48:23;-4.40;99.90
2899;DHT22;1459;50.864;6.438;2022-12-18T08:50:58;-4.40;99.90
2899;DHT22;1459;50.864;6.438;2022-12-18T08:53:26;-4.30;99.90
2899;DHT22;1459;50.864;6.438;2022-12-18T08:55:53;-4.30;99.90
2899;DHT22;1459;50.864;6.438;2022-12-18T08:58:20;-4.20;99.90
2899;DHT22;1459;50.864;6.438;2022-12-18T09:00:47;-4.10;99.90
2899;DHT22;1459;50.864;6.438;2022-12-18T09:03:16;-4.00;99.90
2899;DHT22;1459;50.864;6.438;2022-12-18T09:05:45;-4.00;99.90
2899;DHT22;1459;50.864;6.438;2022-12-18T09:08:14;-3.90;99.90
2899;DHT22;1459;50.864;6.438;2022-12-18T09:10:42;-3.90;99.90
2899;DHT22;1459;50.864;6.438;2022-12-18T09:13:09;-3.90;99.90
2899;DHT22;1459;50.864;6.438;2022-12-18T09:15:40;-3.80;99.90
2899;DHT22;1459;50.864;6.438;2022-12-18T09:18:08;-3.80;99.90
2899;DHT22;1459;50.864;6.438;2022-12-18T09:20:36;-3.70;99.90
2899;DHT22;1459;50.864;6.438;2022-12-18T09:23:03;-3.60;99.90
2899;DHT22;1459;50.864;6.438;2022-12-18T09:25:31;-3.50;99.90
2899;DHT22;1459;50.864;6.438;2022-12-18T09:28:01;-3.40;99.90
2899;DHT22;1459;50.864;6.438;2022-12-18T09:30:28;-3.30;99.90
2899;DHT22;1459;50.864;6.438;2022-12-18T09:32:55;-3.30;99.90
2899;DHT22;1459;50.864;6.438;2022-12-18T09:35:22;-3.20;99.90
2899;DHT22;1459;50.864;6.438;2022-12-18T09:37:49;-3.10;99.90
2899;DHT22;1459;50.864;6.438;2022-12-18T09:40:18;-3.10;99.90
2899;DHT22;1459;50.864;6.438;2022-12-18T09:42:52;-3.00;99.90
2899;DHT22;1459;50.864;6.438;2022-12-18T09:45:20;-2.90;99.90
2899;DHT22;1459;50.864;6.438;2022-12-18T09:47:49;-2.80;99.90
2899;DHT22;1459;50.864;6.438;2022-12-18T09:50:23;-2.80;99.90
2899;DHT22;1459;50.864;6.438;2022-12-18T09:52:54;-2.70;99.90
2899;DHT22;1459;50.864;6.438;2022-12-18T09:55:29;-2.60;99.90
2899;DHT22;1459;50.864;6.438;2022-12-18T09:58:04;-2.50;99.90
2899;DHT22;1459;50.864;6.438;2022-12-18T10:00:32;-2.50;99.90
2899;DHT22;1459;50.864;6.438;2022-12-18T10:03:02;-2.40;99.90
2899;DHT22;1459;50.864;6.438;2022-12-18T10:05:36;-2.30;99.90
2899;DHT22;1459;50.864;6.438;2022-12-18T10:08:07;-2.20;99.90
2899;DHT22;1459;50.864;6.438;2022-12-18T10:10:39;-2.20;99.90
2899;DHT22;1459;50.864;6.438;2022-12-18T10:13:16;-2.10;99.90
2899;DHT22;1459;50.864;6.438;2022-12-18T10:16:03;-2.00;99.90
2899;DHT22;1459;50.864;6.438;2022-12-18T10:18:51;-1.90;99.90
2899;DHT22;1459;50.864;6.438;2022-12-18T10:21:28;-1.80;99.90
2899;DHT22;1459;50.864;6.438;2022-12-18T10:24:02;-1.70;99.90
2899;DHT22;1459;50.864;6.438;2022-12-18T10:26:32;-1.60;99.90
2899;DHT22;1459;50.864;6.438;2022-12-18T10:29:03;-1.60;99.90
2899;DHT22;1459;50.864;6.438;2022-12-18T10:31:31;-1.50;99.90
2899;DHT22;1459;50.864;6.438;2022-12-18T10:33:58;-1.40;99.90
2899;DHT22;1459;50.864;6.438;2022-12-18T10:36:25;-1.30;99.90
2899;DHT22;1459;50.864;6.438;2022-12-18T10:38:52;-1.20;99.90
2899;DHT22;1459;50.864;6.438;2022-12-18T10:41:26;-1.20;99.90
2899;DHT22;1459;50.864;6.438;2022-12-18T10:44:14;-1.10;99.90
2899;DHT22;1459;50.864;6.438;2022-12-18T10:46:42;-1.10;99.90
2899;DHT22;1459;50.864;6.438;2022-12-18T10:49:20;-1.10;99.90
2899;DHT22;1459;50.864;6.438;2022-12-18T10:51:48;-1.10;99.90
2899;DHT22;1459;50.864;6.438;2022-12-18T10:54:17;-1.00;99.90
2899;DHT22;1459;50.864;6.438;2022-12-18T10:56:46;-1.00;99.90
2899;DHT22;1459;50.864;6.438;2022-12-18T10:59:15;-0.90;99.90
2899;DHT22;1459;50.864;6.438;2022-12-18T11:01:49;-0.90;99.90
2899;DHT22;1459;50.864;6.438;2022-12-18T11:04:19;-0.90;99.90
2899;DHT22;1459;50.864;6.438;2022-12-18T11:06:54;-0.80;99.90
2899;DHT22;1459;50.864;6.438;2022-12-18T11:09:23;-0.80;99.90
2899;DHT22;1459;50.864;6.438;2022-12-18T11:11:55;-0.80;99.90
2899;DHT22;1459;50.864;6.438;2022-12-18T11:14:26;-0.60;99.90
2899;DHT22;1459;50.864;6.438;2022-12-18T11:16:54;-0.60;99.90
2899;DHT22;1459;50.864;6.438;2022-12-18T11:19:30;-0.50;99.90
2899;DHT22;1459;50.864;6.438;2022-12-18T11:21:59;-0.40;99.90
2899;DHT22;1459;50.864;6.438;2022-12-18T11:24:29;-0.40;99.90
2899;DHT22;1459;50.864;6.438;2022-12-18T11:26:58;-0.30;99.90
2899;DHT22;1459;50.864;6.438;2022-12-18T11:29:34;-0.30;99.90
2899;DHT22;1459;50.864;6.438;2022-12-18T11:32:28;-0.30;99.90
2899;DHT22;1459;50.864;6.438;2022-12-18T11:35:07;-0.30;99.90
2899;DHT22;1459;50.864;6.438;2022-12-18T11:37:39;-0.20;99.90
2899;DHT22;1459;50.864;6.438;2022-12-18T11:40:13;-0.20;99.90
2899;DHT22;1459;50.864;6.438;2022-12-18T11:42:46;-0.20;99.90
2899;DHT22;1459;50.864;6.438;2022-12-18T11:45:26;-0.20;99.90
2899;DHT22;1459;50.864;6.438;2022-12-18T11:47:57;-0.20;99.90
2899;DHT22;1459;50.864;6.438;2022-12-18T11:50:30;-0.20;99.90
2899;DHT22;1459;50.864;6.438;2022-12-18T11:53:00;-0.10;99.90
2899;DHT22;1459;50.864;6.438;2022-12-18T11:55:33;-0.10;99.90
2899;DHT22;1459;50.864;6.438;2022-12-18T11:58:10;0.00;99.90
2899;DHT22;1459;50.864;6.438;2022-12-18T12:00:46;0.00;99.90
2899;DHT22;1459;50.864;6.438;2022-12-18T12:03:24;0.10;99.90
2899;DHT22;1459;50.864;6.438;2022-12-18T12:06:10;0.10;99.90
2899;DHT22;1459;50.864;6.438;2022-12-18T12:08:52;0.10;99.90
2899;DHT22;1459;50.864;6.438;2022-12-18T12:11:28;0.10;99.90
2899;DHT22;1459;50.864;6.438;2022-12-18T12:14:13;0.20;99.90
2899;DHT22;1459;50.864;6.438;2022-12-18T12:16:50;0.20;99.90
2899;DHT22;1459;50.864;6.438;2022-12-18T12:19:32;0.20;99.90
2899;DHT22;1459;50.864;6.438;2022-12-18T12:22:10;0.20;99.90
2899;DHT22;1459;50.864;6.438;2022-12-18T12:24:49;0.20;99.90
2899;DHT22;1459;50.864;6.438;2022-12-18T12:27:28;0.20;99.90
2899;DHT22;1459;50.864;6.438;2022-12-18T12:30:04;0.20;99.90
2899;DHT22;1459;50.864;6.438;2022-12-18T12:32:42;0.30;99.90
2899;DHT22;1459;50.864;6.438;2022-12-18T12:35:22;0.30;99.90
2899;DHT22;1459;50.864;6.438;2022-12-18T12:38:01;0.30;99.90
2899;DHT22;1459;50.864;6.438;2022-12-18T12:40:34;0.30;99.90
2899;DHT22;1459;50.864;6.438;2022-12-18T12:43:05;0.30;99.90
2899;DHT22;1459;50.864;6.438;2022-12-18T12:45:44;0.30;99.90
2899;DHT22;1459;50.864;6.438;2022-12-18T12:48:18;0.30;99.90
2899;DHT22;1459;50.864;6.438;2022-12-18T12:50:47;0.30;99.90
2899;DHT22;1459;50.864;6.438;2022-12-18T12:53:23;0.30;99.90
2899;DHT22;1459;50.864;6.438;2022-12-18T12:55:52;0.30;99.90
2899;DHT22;1459;50.864;6.438;2022-12-18T12:58:26;0.30;99.90
2899;DHT22;1459;50.864;6.438;2022-12-18T13:01:04;0.20;99.90
2899;DHT22;1459;50.864;6.438;2022-12-18T13:03:43;0.20;99.90
2899;DHT22;1459;50.864;6.438;2022-12-18T13:06:18;0.20;99.90
2899;DHT22;1459;50.864;6.438;2022-12-18T13:08:55;0.10;99.90
2899;DHT22;1459;50.864;6.438;2022-12-18T13:11:31;0.10;99.90
2899;DHT22;1459;50.864;6.438;2022-12-18T13:14:28;0.10;99.90
2899;DHT22;1459;50.864;6.438;2022-12-18T13:17:27;0.10;99.90
2899;DHT22;1459;50.864;6.438;2022-12-18T13:20:15;0.10;99.90
2899;DHT22;1459;50.864;6.438;2022-12-18T13:22:44;0.00;99.90
2899;DHT22;1459;50.864;6.438;2022-12-18T13:25:32;0.00;99.90
2899;DHT22;1459;50.864;6.438;2022-12-18T13:28:06;-0.10;99.90
2899;DHT22;1459;50.864;6.438;2022-12-18T13:30:53;-0.10;99.90
2899;DHT22;1459;50.864;6.438;2022-12-18T13:33:47;-0.10;99.90
2899;DHT22;1459;50.864;6.438;2022-12-18T13:36:29;-0.10;99.90
2899;DHT22;1459;50.864;6.438;2022-12-18T13:39:22;-0.10;99.90
2899;DHT22;1459;50.864;6.438;2022-12-18T13:41:50;-0.10;99.90
2899;DHT22;1459;50.864;6.438;2022-12-18T13:44:31;-0.10;99.90
2899;DHT22;1459;50.864;6.438;2022-12-18T13:47:00;-0.10;99.90
2899;DHT22;1459;50.864;6.438;2022-12-18T13:49:33;-0.20;99.90
2899;DHT22;1459;50.864;6.438;2022-12-18T13:52:15;-0.20;99.90
2899;DHT22;1459;50.864;6.438;2022-12-18T13:54:43;-0.30;99.90
2899;DHT22;1459;50.864;6.438;2022-12-18T13:57:26;-0.30;99.90
2899;DHT22;1459;50.864;6.438;2022-12-18T13:59:54;-0.30;99.90
2899;DHT22;1459;50.864;6.438;2022-12-18T14:02:23;-0.40;99.90
2899;DHT22;1459;50.864;6.438;2022-12-18T14:04:51;-0.40;99.90
2899;DHT22;1459;50.864;6.438;2022-12-18T14:07:22;-0.40;99.90
2899;DHT22;1459;50.864;6.438;2022-12-18T14:09:51;-0.40;99.90
2899;DHT22;1459;50.864;6.438;2022-12-18T14:12:21;-0.40;99.90
2899;DHT22;1459;50.864;6.438;2022-12-18T14:15:20;-0.40;99.90
2899;DHT22;1459;50.864;6.438;2022-12-18T14:17:49;-0.40;99.90
2899;DHT22;1459;50.864;6.438;2022-12-18T14:20:17;-0.50;99.90
2899;DHT22;1459;50.864;6.438;2022-12-18T14:22:48;-0.60;99.90
2899;DHT22;1459;50.864;6.438;2022-12-18T14:25:18;-0.60;99.90
2899;DHT22;1459;50.864;6.438;2022-12-18T14:27:47;-0.60;99.90
2899;DHT22;1459;50.864;6.438;2022-12-18T14:30:34;-0.70;99.90
2899;DHT22;1459;50.864;6.438;2022-12-18T14:33:04;-0.70;99.90
2899;DHT22;1459;50.864;6.438;2022-12-18T14:35:32;-0.70;99.90
2899;DHT22;1459;50.864;6.438;2022-12-18T14:38:21;-0.70;99.90
2899;DHT22;1459;50.864;6.438;2022-12-18T14:40:53;-0.70;99.90
2899;DHT22;1459;50.864;6.438;2022-12-18T14:43:20;-0.70;99.90
2899;DHT22;1459;50.864;6.438;2022-12-18T14:45:48;-0.70;99.90
2899;DHT22;1459;50.864;6.438;2022-12-18T14:48:17;-0.70;99.90
2899;DHT22;1459;50.864;6.438;2022-12-18T14:50:54;-0.70;99.90
2899;DHT22;1459;50.864;6.438;2022-12-18T14:53:29;-0.70;99.90
2899;DHT22;1459;50.864;6.438;2022-12-18T14:55:57;-0.70;99.90
2899;DHT22;1459;50.864;6.438;2022-12-18T14:58:24;-0.70;99.90
2899;DHT22;1459;50.864;6.438;2022-12-18T15:00:51;-0.70;99.90
2899;DHT22;1459;50.864;6.438;2022-12-18T15:03:20;-0.70;99.90
2899;DHT22;1459;50.864;6.438;2022-12-18T15:05:50;-0.70;99.90
2899;DHT22;1459;50.864;6.438;2022-12-18T15:08:35;-0.70;99.90
2899;DHT22;1459;50.864;6.438;2022-12-18T15:11:02;-0.80;99.90
2899;DHT22;1459;50.864;6.438;2022-12-18T15:13:30;-0.80;99.90
2899;DHT22;1459;50.864;6.438;2022-12-18T15:15:57;-0.80;99.90
2899;DHT22;1459;50.864;6.438;2022-12-18T15:18:32;-0.80;99.90
2899;DHT22;1459;50.864;6.438;2022-12-18T15:21:08;-0.80;99.90
2899;DHT22;1459;50.864;6.438;2022-12-18T15:23:46;-0.80;99.90
2899;DHT22;1459;50.864;6.438;2022-12-18T15:26:15;-0.90;99.90
2899;DHT22;1459;50.864;6.438;2022-12-18T15:28:45;-0.90;99.90
2899;DHT22;1459;50.864;6.438;2022-12-18T15:31:24;-0.90;99.90
2899;DHT22;1459;50.864;6.438;2022-12-18T15:34:09;-1.00;99.90
2899;DHT22;1459;50.864;6.438;2022-12-18T15:36:37;-1.00;99.90
2899;DHT22;1459;50.864;6.438;2022-12-18T15:39:11;-0.90;99.90
2899;DHT22;1459;50.864;6.438;2022-12-18T15:41:38;-0.90;99.90
2899;DHT22;1459;50.864;6.438;2022-12-18T15:44:22;-0.90;99.90
2899;DHT22;1459;50.864;6.438;2022-12-18T15:46:48;-0.90;99.90
2899;DHT22;1459;50.864;6.438;2022-12-18T15:49:15;-0.90;99.90
2899;DHT22;1459;50.864;6.438;2022-12-18T15:51:42;-0.90;99.90
2899;DHT22;1459;50.864;6.438;2022-12-18T15:54:13;-1.00;99.90
2899;DHT22;1459;50.864;6.438;2022-12-18T15:56:45;-0.90;99.90
2899;DHT22;1459;50.864;6.438;2022-12-18T15:59:30;-0.90;99.90
2899;DHT22;1459;50.864;6.438;2022-12-18T16:01:56;-0.90;99.90
2899;DHT22;1459;50.864;6.438;2022-12-18T16:04:23;-0.90;99.90
2899;DHT22;1459;50.864;6.438;2022-12-18T16:06:51;-0.90;99.90
2899;DHT22;1459;50.864;6.438;2022-12-18T16:09:19;-0.90;99.90
2899;DHT22;1459;50.864;6.438;2022-12-18T16:11:46;-0.90;99.90
2899;DHT22;1459;50.864;6.438;2022-12-18T16:14:19;-0.90;99.90
2899;DHT22;1459;50.864;6.438;2022-12-18T16:16:47;-0.90;99.90
2899;DHT22;1459;50.864;6.438;2022-12-18T16:19:17;-0.90;99.90
2899;DHT22;1459;50.864;6.438;2022-12-18T16:21:46;-0.80;99.90
2899;DHT22;1459;50.864;6.438;2022-12-18T16:24:15;-0.80;99.90
2899;DHT22;1459;50.864;6.438;2022-12-18T16:26:44;-0.80;99.90
2899;DHT22;1459;50.864;6.438;2022-12-18T16:29:11;-0.80;99.90